createdAt,value
2022-08-05T00:02:22.184Z,18.33
2022-08-05T00:04:55.165Z,18.30
2022-08-05T00:07:59.663Z,18.28
2022-08-05T00:10:10.210Z,18.23
2022-08-05T00:12:55.808Z,18.21
2022-08-05T00:15:55.042Z,18.17
2022-08-05T00:18:21.359Z,18.15
2022-08-05T00:20:50.254Z,18.15
2022-08-05T00:23:17.361Z,18.16
2022-08-05T00:26:04.609Z,18.16
2022-08-05T00:28:31.302Z,18.16
2022-08-05T00:31:02.870Z,18.16
2022-08-05T00:34:56.994Z,18.14
2022-08-05T00:37:12.294Z,18.12
2022-08-05T00:39:05.577Z,18.08
2022-08-05T00:41:51.858Z,18.07
2022-08-05T00:44:30.562Z,18.01
2022-08-05T00:47:01.651Z,17.96
2022-08-05T00:49:32.565Z,17.90
2022-08-05T00:52:00.247Z,17.84
2022-08-05T00:54:28.058Z,17.77
2022-08-05T00:56:56.960Z,17.70
2022-08-05T00:59:23.878Z,17.65
2022-08-05T01:01:51.194Z,17.64
2022-08-05T01:04:20.089Z,17.62
2022-08-05T01:06:53.683Z,17.56
2022-08-05T01:09:22.714Z,17.53
2022-08-05T01:11:53.765Z,17.50
2022-08-05T01:14:37.282Z,17.50
2022-08-05T01:17:10.896Z,17.49
2022-08-05T01:20:07.804Z,17.47
2022-08-05T01:22:59.778Z,17.41
2022-08-05T01:26:01.264Z,17.35
2022-08-05T01:28:37.193Z,17.29
2022-08-05T01:31:28.072Z,17.22
2022-08-05T01:34:00.951Z,17.18
2022-08-05T01:36:32.783Z,17.14
2022-08-05T01:39:01.349Z,17.07
2022-08-05T01:41:32.765Z,17.02
2022-08-05T01:44:02.217Z,17.04
2022-08-05T01:46:46.166Z,17.04
2022-08-05T01:49:23.742Z,17.06
2022-08-05T01:51:58.398Z,17.06
2022-08-05T01:54:31.831Z,17.08
2022-08-05T01:58:11.255Z,17.07
2022-08-05T01:59:51.761Z,17.08
2022-08-05T02:02:26.255Z,17.06
2022-08-05T02:04:59.985Z,17.01
2022-08-05T02:07:27.232Z,16.94
2022-08-05T02:09:57.709Z,16.88
2022-08-05T02:12:37.565Z,16.82
2022-08-05T02:15:12.281Z,16.73
2022-08-05T02:18:32.611Z,16.67
2022-08-05T02:20:58.682Z,16.65
2022-08-05T02:23:33.742Z,16.59
2022-08-05T02:26:05.347Z,16.55
2022-08-05T02:28:38.401Z,16.53
2022-08-05T02:31:14.777Z,16.48
2022-08-05T02:33:57.236Z,16.46
2022-08-05T02:36:27.524Z,16.41
2022-08-05T02:38:57.588Z,16.33
2022-08-05T02:41:28.998Z,16.28
2022-08-05T02:44:13.386Z,16.24
2022-08-05T02:46:53.807Z,16.21
2022-08-05T02:49:36.448Z,16.20
2022-08-05T02:52:11.603Z,16.20
2022-08-05T02:54:42.803Z,16.20
2022-08-05T02:58:12.160Z,16.18
2022-08-05T03:00:09.941Z,16.18
2022-08-05T03:02:42.803Z,16.15
2022-08-05T03:05:11.287Z,16.12
2022-08-05T03:08:06.648Z,16.12
2022-08-05T03:10:28.004Z,16.13
2022-08-05T03:12:55.004Z,16.14
2022-08-05T03:15:24.845Z,16.16
2022-08-05T03:17:55.815Z,16.13
2022-08-05T03:20:23.633Z,16.14
2022-08-05T03:22:52.238Z,16.17
2022-08-05T03:25:34.137Z,16.15
2022-08-05T03:28:08.769Z,16.14
2022-08-05T03:30:38.339Z,16.20
2022-08-05T03:33:08.358Z,16.21
2022-08-05T03:35:41.283Z,16.21
2022-08-05T03:38:11.845Z,16.23
2022-08-05T03:40:45.218Z,16.19
2022-08-05T03:44:08.168Z,16.17
2022-08-05T03:46:02.949Z,16.15
2022-08-05T03:48:30.833Z,16.17
2022-08-05T03:52:36.559Z,16.21
2022-08-05T03:56:01.887Z,16.19
2022-08-05T03:57:45.742Z,16.18
2022-08-05T04:00:15.520Z,16.18
2022-08-05T04:02:52.007Z,16.22
2022-08-05T04:05:33.963Z,16.24
2022-08-05T04:08:29.628Z,16.26
2022-08-05T04:10:54.987Z,16.31
2022-08-05T04:13:21.942Z,16.38
2022-08-05T04:16:03.232Z,16.50
2022-08-05T04:18:34.347Z,16.59
2022-08-05T04:21:02.254Z,16.66
2022-08-05T04:24:05.452Z,16.75
2022-08-05T04:26:18.487Z,16.86
2022-08-05T04:28:50.782Z,16.94
2022-08-05T04:31:18.131Z,17.04
2022-08-05T04:34:18.104Z,17.12
2022-08-05T04:36:46.304Z,17.21
2022-08-05T04:39:21.068Z,17.30
2022-08-05T04:41:50.965Z,17.38
2022-08-05T04:44:29.134Z,17.46
2022-08-05T04:46:56.752Z,17.50
2022-08-05T04:49:38.722Z,17.53
2022-08-05T04:52:11.838Z,17.55
2022-08-05T04:54:38.601Z,17.60
2022-08-05T04:57:05.362Z,17.64
2022-08-05T04:59:36.838Z,17.68
2022-08-05T05:02:41.478Z,17.75
2022-08-05T05:05:01.899Z,17.78
2022-08-05T05:07:32.846Z,17.85
2022-08-05T05:10:05.520Z,17.92
2022-08-05T05:12:33.366Z,18.01
2022-08-05T05:15:03.869Z,18.08
2022-08-05T05:17:55.656Z,18.18
2022-08-05T05:20:28.766Z,18.22
2022-08-05T05:22:56.191Z,18.25
2022-08-05T05:25:40.390Z,18.27
2022-08-05T05:28:07.777Z,18.28
2022-08-05T05:30:36.248Z,18.32
2022-08-05T05:33:14.045Z,18.35
2022-08-05T05:35:47.085Z,18.40
2022-08-05T05:38:22.806Z,18.50
2022-08-05T05:40:54.169Z,18.59
2022-08-05T05:43:54.078Z,18.66
2022-08-05T05:46:17.360Z,18.72
2022-08-05T05:48:47.841Z,18.76
2022-08-05T05:51:19.471Z,18.82
2022-08-05T05:53:58.058Z,18.89
2022-08-05T05:56:32.528Z,18.98
2022-08-05T05:59:10.024Z,19.09
2022-08-05T06:01:57.563Z,19.21
2022-08-05T06:04:25.148Z,19.32
2022-08-05T06:06:52.820Z,19.43
2022-08-05T06:09:25.428Z,19.53
2022-08-05T06:12:01.696Z,19.65
2022-08-05T06:14:30.556Z,19.74
2022-08-05T06:16:57.912Z,19.84
2022-08-05T06:19:26.181Z,19.92
2022-08-05T06:22:01.600Z,20.02
2022-08-05T06:24:28.276Z,20.10
2022-08-05T06:26:55.098Z,20.19
2022-08-05T06:29:43.085Z,20.32
2022-08-05T06:32:21.239Z,20.45
2022-08-05T06:34:58.002Z,20.57
2022-08-05T06:37:56.671Z,20.69
2022-08-05T06:40:13.962Z,20.76
2022-08-05T06:42:45.777Z,20.83
2022-08-05T06:45:20.698Z,20.92
2022-08-05T06:48:46.891Z,21.03
2022-08-05T06:50:35.327Z,21.13
2022-08-05T06:53:11.284Z,21.24
2022-08-05T06:55:38.548Z,21.33
2022-08-05T06:58:20.162Z,21.40
2022-08-05T07:00:59.646Z,21.51
2022-08-05T07:03:32.404Z,21.61
2022-08-05T07:06:06.196Z,21.69
2022-08-05T07:08:42.919Z,21.77
2022-08-05T07:11:15.888Z,21.86
2022-08-05T07:14:02.017Z,21.97
2022-08-05T07:17:58.330Z,22.11
2022-08-05T07:22:29.134Z,22.33
2022-08-05T07:25:22.444Z,22.49
2022-08-05T07:27:58.047Z,22.58
2022-08-05T07:30:38.416Z,22.70
2022-08-05T07:33:10.653Z,22.83
2022-08-05T07:36:02.606Z,22.93
2022-08-05T07:38:34.399Z,23.08
2022-08-05T07:42:07.027Z,23.19
2022-08-05T07:43:56.908Z,23.31
2022-08-05T07:46:27.802Z,23.41
2022-08-05T07:49:04.973Z,23.51
2022-08-05T07:51:37.421Z,23.57
2022-08-05T07:54:08.348Z,23.63
2022-08-05T07:56:39.050Z,23.68
2022-08-05T07:59:38.393Z,23.78
2022-08-05T08:02:17.024Z,23.88
2022-08-05T08:04:46.529Z,23.95
2022-08-05T08:07:15.244Z,23.98
2022-08-05T08:09:42.453Z,24.02
2022-08-05T08:12:33.508Z,24.08
2022-08-05T08:14:56.702Z,24.19
2022-08-05T08:17:29.110Z,24.29
2022-08-05T08:20:21.496Z,24.39
2022-08-05T08:22:46.200Z,24.53
2022-08-05T08:25:16.266Z,24.71
2022-08-05T08:27:51.300Z,24.88
2022-08-05T08:30:34.160Z,25.05
2022-08-05T08:33:13.724Z,25.15
2022-08-05T08:35:52.796Z,25.33
2022-08-05T08:38:35.875Z,25.55
2022-08-05T08:41:14.248Z,25.77
2022-08-05T08:45:19.919Z,25.95
2022-08-05T08:46:31.941Z,26.14
2022-08-05T08:49:17.403Z,26.37
2022-08-05T08:52:03.909Z,26.74
2022-08-05T08:54:34.166Z,27.14
2022-08-05T08:57:05.614Z,27.52
2022-08-05T08:59:41.882Z,28.01
2022-08-05T09:02:16.567Z,28.66
2022-08-05T09:04:58.235Z,29.26
2022-08-05T09:07:39.454Z,29.90
2022-08-05T09:10:20.817Z,30.56
2022-08-05T09:12:54.107Z,31.22
2022-08-05T09:15:22.291Z,32.04
2022-08-05T09:17:53.109Z,33.07
2022-08-05T09:20:36.163Z,34.12
2022-08-05T09:23:19.494Z,35.32
2022-08-05T09:26:01.830Z,36.56
2022-08-05T09:28:33.553Z,37.55
2022-08-05T09:31:22.299Z,38.09
2022-08-05T09:34:03.944Z,38.72
2022-08-05T09:37:00.639Z,39.43
2022-08-05T09:39:45.037Z,40.12
2022-08-05T09:42:24.352Z,41.19
2022-08-05T09:45:03.217Z,42.18
2022-08-05T09:47:55.611Z,43.05
2022-08-05T09:50:38.489Z,43.48
2022-08-05T09:53:15.760Z,43.97
2022-08-05T09:56:12.620Z,44.48
2022-08-05T09:58:42.056Z,44.87
2022-08-05T10:01:14.801Z,44.91
2022-08-05T10:03:58.483Z,44.95
2022-08-05T10:06:31.063Z,45.26
2022-08-05T10:09:27.853Z,45.32
2022-08-05T10:11:55.357Z,45.52
2022-08-05T10:14:32.118Z,46.12
2022-08-05T10:17:37.387Z,46.56
2022-08-05T10:20:09.764Z,46.68
2022-08-05T10:22:38.073Z,46.54
2022-08-05T10:25:10.413Z,46.95
2022-08-05T10:28:13.146Z,47.47
2022-08-05T10:32:46.714Z,47.45
2022-08-05T10:33:18.456Z,47.30
2022-08-05T10:35:59.641Z,47.52
2022-08-05T10:38:28.943Z,47.94
2022-08-05T10:41:23.251Z,48.34
2022-08-05T10:44:11.478Z,48.79
2022-08-05T10:46:54.400Z,49.25
2022-08-05T10:49:26.922Z,49.40
2022-08-05T10:52:00.411Z,49.37
2022-08-05T10:55:10.258Z,49.33
2022-08-05T10:57:44.729Z,49.07
2022-08-05T11:00:19.112Z,49.26
2022-08-05T11:03:24.924Z,49.63
2022-08-05T11:06:15.266Z,49.65
2022-08-05T11:09:45.224Z,49.14
2022-08-05T11:12:27.168Z,49.39
2022-08-05T11:16:00.174Z,49.34
2022-08-05T11:18:34.064Z,49.24
2022-08-05T11:21:06.380Z,49.17
2022-08-05T11:24:03.031Z,49.55
2022-08-05T11:26:33.379Z,50.08
2022-08-05T11:29:11.532Z,50.37
2022-08-05T11:31:58.243Z,50.17
2022-08-05T11:34:39.032Z,50.25
2022-08-05T11:38:28.479Z,50.33
2022-08-05T11:39:55.230Z,50.19
2022-08-05T11:42:28.096Z,50.19
2022-08-05T11:45:05.465Z,50.33
2022-08-05T11:47:49.582Z,50.41
2022-08-05T11:50:17.964Z,49.83
2022-08-05T11:52:48.446Z,49.34
2022-08-05T11:55:16.352Z,49.00
2022-08-05T11:58:09.352Z,48.77
2022-08-05T12:00:38.051Z,48.77
2022-08-05T12:03:24.024Z,48.89
2022-08-05T12:06:01.040Z,48.38
2022-08-05T12:08:27.805Z,48.02
2022-08-05T12:11:00.108Z,48.21
2022-08-05T12:13:48.593Z,48.60
2022-08-05T12:16:19.491Z,49.03
2022-08-05T12:18:52.406Z,49.55
2022-08-05T12:21:29.794Z,49.98
2022-08-05T12:24:06.915Z,50.23
2022-08-05T12:26:39.827Z,50.34
2022-08-05T12:29:16.236Z,50.39
2022-08-05T12:31:52.997Z,50.41
2022-08-05T12:34:23.923Z,50.26
2022-08-05T12:36:53.852Z,50.33
2022-08-05T12:39:20.910Z,50.42
2022-08-05T12:41:48.691Z,50.59
2022-08-05T12:44:21.650Z,50.78
2022-08-05T12:47:00.361Z,50.90
2022-08-05T12:50:03.537Z,51.07
2022-08-05T12:52:38.000Z,50.86
2022-08-05T12:55:21.767Z,50.52
2022-08-05T12:58:49.515Z,50.44
2022-08-05T13:02:01.238Z,49.88
2022-08-05T13:03:32.205Z,49.80
2022-08-05T13:06:00.829Z,49.67
2022-08-05T13:08:30.208Z,49.47
2022-08-05T13:11:05.740Z,49.59
2022-08-05T13:14:05.171Z,49.63
2022-08-05T13:16:19.996Z,49.53
2022-08-05T13:18:59.524Z,49.09
2022-08-05T13:21:37.641Z,48.51
2022-08-05T13:24:08.934Z,47.92
2022-08-05T13:26:35.948Z,47.50
2022-08-05T13:29:02.872Z,47.10
2022-08-05T13:32:03.451Z,46.64
2022-08-05T13:34:21.306Z,46.56
2022-08-05T13:36:51.122Z,46.37
2022-08-05T13:40:12.752Z,46.22
2022-08-05T13:42:04.658Z,46.45
2022-08-05T13:44:34.817Z,46.79
2022-08-05T13:47:08.305Z,46.95
2022-08-05T13:49:35.683Z,47.00
2022-08-05T13:52:12.708Z,46.81
2022-08-05T13:54:40.126Z,46.64
2022-08-05T13:57:07.140Z,46.40
2022-08-05T13:59:33.860Z,46.07
2022-08-05T14:02:06.177Z,45.52
2022-08-05T14:05:00.720Z,45.12
2022-08-05T14:08:00.832Z,44.84
2022-08-05T14:10:30.713Z,44.27
2022-08-05T14:12:58.392Z,43.73
2022-08-05T14:16:05.573Z,43.31
2022-08-05T14:18:15.295Z,42.93
2022-08-05T14:20:47.869Z,42.44
2022-08-05T14:23:24.568Z,42.16
2022-08-05T14:25:58.156Z,41.76
2022-08-05T14:28:27.764Z,41.19
2022-08-05T14:30:56.561Z,40.80
2022-08-05T14:33:24.023Z,40.39
2022-08-05T14:35:52.299Z,39.90
2022-08-05T14:38:33.126Z,39.52
2022-08-05T14:41:07.661Z,38.88
2022-08-05T14:43:57.648Z,38.28
2022-08-05T14:46:28.698Z,37.64
2022-08-05T14:48:59.034Z,37.16
2022-08-05T14:51:31.251Z,36.55
2022-08-05T14:54:26.903Z,35.98
2022-08-05T14:56:47.209Z,35.56
2022-08-05T14:59:15.303Z,35.17
2022-08-05T15:01:47.947Z,34.86
2022-08-05T15:04:17.278Z,34.56
2022-08-05T15:06:49.239Z,34.34
2022-08-05T15:09:52.069Z,34.14
2022-08-05T15:12:05.586Z,33.89
2022-08-05T15:14:34.525Z,33.67
2022-08-05T15:17:04.912Z,33.43
2022-08-05T15:19:32.544Z,33.19
2022-08-05T15:22:01.398Z,32.93
2022-08-05T15:24:28.990Z,32.67
2022-08-05T15:26:55.879Z,32.50
2022-08-05T15:29:23.664Z,32.38
2022-08-05T15:31:56.667Z,32.33
2022-08-05T15:34:32.141Z,32.28
2022-08-05T15:37:04.897Z,32.15
2022-08-05T15:41:01.897Z,31.97
2022-08-05T15:42:54.521Z,31.89
2022-08-05T15:45:09.884Z,31.83
2022-08-05T15:47:36.701Z,31.68
2022-08-05T15:50:04.367Z,31.56
2022-08-05T15:52:53.460Z,31.46
2022-08-05T15:55:25.008Z,31.41
2022-08-05T15:58:16.354Z,31.39
2022-08-05T16:01:03.555Z,31.36
2022-08-05T16:03:32.597Z,31.27
2022-08-05T16:06:00.618Z,31.20
2022-08-05T16:08:30.826Z,31.15
2022-08-05T16:10:58.534Z,31.15
2022-08-05T16:13:34.359Z,31.12
2022-08-05T16:16:05.480Z,31.07
2022-08-05T16:18:35.907Z,31.00
2022-08-05T16:21:19.010Z,30.95
2022-08-05T16:23:54.172Z,30.89
2022-08-05T16:26:26.378Z,30.83
2022-08-05T16:28:55.514Z,30.78
2022-08-05T16:31:23.067Z,30.73
2022-08-05T16:33:52.401Z,30.67
2022-08-05T16:36:23.829Z,30.65
2022-08-05T16:38:55.071Z,30.65
2022-08-05T16:42:14.592Z,30.63
2022-08-05T16:44:11.567Z,30.56
2022-08-05T16:46:41.189Z,30.52
2022-08-05T16:49:22.668Z,30.50
2022-08-05T16:51:51.057Z,30.48
2022-08-05T16:54:27.503Z,30.53
2022-08-05T16:56:58.661Z,30.57
2022-08-05T16:59:25.405Z,30.59
2022-08-05T17:01:56.376Z,30.57
2022-08-05T17:04:27.965Z,30.55
2022-08-05T17:07:03.434Z,30.50
2022-08-05T17:09:57.678Z,30.44
2022-08-05T17:12:51.781Z,30.37
2022-08-05T17:15:15.589Z,30.28
2022-08-05T17:17:44.010Z,30.20
2022-08-05T17:20:14.847Z,30.12
2022-08-05T17:22:43.126Z,30.04
2022-08-05T17:25:33.786Z,29.92
2022-08-05T17:27:58.970Z,29.79
2022-08-05T17:30:28.322Z,29.69
2022-08-05T17:32:56.919Z,29.57
2022-08-05T17:35:23.651Z,29.47
2022-08-05T17:37:51.455Z,29.36
2022-08-05T17:40:18.974Z,29.26
2022-08-05T17:42:51.872Z,29.14
2022-08-05T17:45:38.075Z,29.03
2022-08-05T17:48:08.221Z,28.91
2022-08-05T17:50:35.081Z,28.80
2022-08-05T17:53:04.861Z,28.69
2022-08-05T17:55:38.201Z,28.57
2022-08-05T17:58:13.391Z,28.46
2022-08-05T18:00:44.947Z,28.34
2022-08-05T18:03:33.440Z,28.21
2022-08-05T18:06:05.083Z,28.05
2022-08-05T18:08:33.805Z,27.91
2022-08-05T18:11:03.232Z,27.77
2022-08-05T18:13:36.465Z,27.66
2022-08-05T18:16:04.154Z,27.52
2022-08-05T18:18:33.759Z,27.42
2022-08-05T18:21:13.354Z,27.32
2022-08-05T18:23:47.231Z,27.22
2022-08-05T18:26:14.050Z,27.13
2022-08-05T18:28:46.340Z,27.02
2022-08-05T18:31:13.390Z,26.94
2022-08-05T18:33:47.062Z,26.81
2022-08-05T18:36:16.951Z,26.71
2022-08-05T18:38:46.608Z,26.56
2022-08-05T18:41:57.291Z,26.40
2022-08-05T18:44:06.568Z,26.25
2022-08-05T18:46:34.684Z,26.14
2022-08-05T18:49:21.799Z,26.05
2022-08-05T18:52:08.507Z,25.94
2022-08-05T18:54:41.395Z,25.83
2022-08-05T18:57:15.205Z,25.75
2022-08-05T19:00:01.822Z,25.66
2022-08-05T19:02:29.287Z,25.62
2022-08-05T19:05:02.445Z,25.56
2022-08-05T19:07:48.221Z,25.49
2022-08-05T19:10:19.114Z,25.43
2022-08-05T19:12:55.176Z,25.38
2022-08-05T19:15:57.844Z,25.29
2022-08-05T19:18:13.431Z,25.15
2022-08-05T19:20:48.617Z,25.04
2022-08-05T19:24:05.881Z,24.95
2022-08-05T19:26:02.893Z,24.86
2022-08-05T19:28:32.854Z,24.74
2022-08-05T19:31:01.277Z,24.65
2022-08-05T19:33:36.341Z,24.53
2022-08-05T19:36:06.591Z,24.40
2022-08-05T19:38:36.677Z,24.33
2022-08-05T19:41:07.016Z,24.27
2022-08-05T19:44:07.073Z,24.24
2022-08-05T19:46:30.038Z,24.20
2022-08-05T19:49:03.433Z,24.14
2022-08-05T19:52:05.439Z,24.01
2022-08-05T19:54:26.761Z,23.96
2022-08-05T19:57:02.135Z,23.95
2022-08-05T20:00:00.647Z,23.91
2022-08-05T20:02:17.868Z,23.89
2022-08-05T20:04:46.029Z,23.84
2022-08-05T20:07:14.099Z,23.76
2022-08-05T20:09:55.193Z,23.67
2022-08-05T20:12:24.577Z,23.59
2022-08-05T20:14:52.997Z,23.55
2022-08-05T20:17:23.544Z,23.51
2022-08-05T20:19:51.116Z,23.44
2022-08-05T20:22:24.107Z,23.42
2022-08-05T20:24:53.817Z,23.36
2022-08-05T20:27:26.897Z,23.29
2022-08-05T20:29:57.602Z,23.26
2022-08-05T20:32:26.786Z,23.24
2022-08-05T20:34:54.128Z,23.23
2022-08-05T20:38:04.678Z,23.19
2022-08-05T20:40:09.144Z,23.11
2022-08-05T20:42:35.943Z,23.05
2022-08-05T20:45:04.224Z,22.98
2022-08-05T20:47:32.712Z,22.92
2022-08-05T20:50:02.113Z,22.92
2022-08-05T20:52:29.747Z,22.90
2022-08-05T20:54:59.474Z,22.90
2022-08-05T20:57:43.894Z,22.88
2022-08-05T21:00:40.743Z,22.88
2022-08-05T21:03:06.123Z,22.85
2022-08-05T21:05:47.937Z,22.83
2022-08-05T21:08:21.347Z,22.77
2022-08-05T21:10:55.190Z,22.74
2022-08-05T21:13:26.133Z,22.71
2022-08-05T21:16:12.563Z,22.69
2022-08-05T21:18:39.280Z,22.65
2022-08-05T21:21:11.865Z,22.65
2022-08-05T21:23:38.888Z,22.64
2022-08-05T21:26:12.508Z,22.62
2022-08-05T21:28:47.905Z,22.60
2022-08-05T21:31:18.201Z,22.58
2022-08-05T21:33:47.522Z,22.56
2022-08-05T21:36:27.542Z,22.55
2022-08-05T21:38:56.950Z,22.53
2022-08-05T21:41:26.089Z,22.51
2022-08-05T21:44:01.474Z,22.50
2022-08-05T21:46:31.287Z,22.49
2022-08-05T21:48:59.872Z,22.48
2022-08-05T21:52:23.004Z,22.45
2022-08-05T21:54:13.395Z,22.40
2022-08-05T21:56:44.461Z,22.41
2022-08-05T21:59:24.120Z,22.40
2022-08-05T22:01:54.529Z,22.35
2022-08-05T22:04:25.354Z,22.32
2022-08-05T22:06:52.646Z,22.33
2022-08-05T22:09:21.008Z,22.32
2022-08-05T22:11:48.628Z,22.27
2022-08-05T22:14:35.029Z,22.22
2022-08-05T22:17:07.005Z,22.19
2022-08-05T22:20:00.867Z,22.17
2022-08-05T22:22:27.987Z,22.15
2022-08-05T22:25:21.849Z,22.12
2022-08-05T22:28:09.298Z,22.10
2022-08-05T22:30:56.187Z,22.06
2022-08-05T22:33:55.479Z,22.01
2022-08-05T22:36:14.455Z,21.99
2022-08-05T22:38:42.671Z,21.97
2022-08-05T22:41:10.319Z,21.95
2022-08-05T22:43:40.916Z,21.92
2022-08-05T22:46:13.630Z,21.91
2022-08-05T22:48:50.135Z,21.84
2022-08-05T22:51:23.229Z,21.77
2022-08-05T22:54:04.367Z,21.69
2022-08-05T22:56:31.506Z,21.66
2022-08-05T22:59:04.617Z,21.61
2022-08-05T23:01:50.977Z,21.61
2022-08-05T23:04:33.223Z,21.57
2022-08-05T23:07:00.199Z,21.52
2022-08-05T23:09:58.400Z,21.45
2022-08-05T23:12:16.369Z,21.36
2022-08-05T23:14:43.810Z,21.31
2022-08-05T23:17:34.178Z,21.28
2022-08-05T23:20:15.567Z,21.29
2022-08-05T23:22:47.146Z,21.31
2022-08-05T23:25:17.019Z,21.34
2022-08-05T23:28:03.048Z,21.35
2022-08-05T23:30:31.297Z,21.33
2022-08-05T23:32:58.169Z,21.30
2022-08-05T23:35:28.671Z,21.32
2022-08-05T23:38:02.001Z,21.28
2022-08-05T23:40:28.878Z,21.26
2022-08-05T23:42:55.793Z,21.21
2022-08-05T23:45:23.674Z,21.19
2022-08-05T23:47:53.658Z,21.20
2022-08-05T23:50:21.129Z,21.19
2022-08-05T23:52:50.534Z,21.14
2022-08-05T23:55:19.993Z,21.11
2022-08-05T23:57:51.027Z,21.07
